createdAt,value
2022-12-17T00:01:21.017Z,22.15
2022-12-17T00:04:06.295Z,21.90
2022-12-17T00:06:51.495Z,20.90
2022-12-17T00:09:37.107Z,21.02
2022-12-17T00:12:22.454Z,22.58
2022-12-17T00:15:07.858Z,24.67
2022-12-17T00:17:53.170Z,22.25
2022-12-17T00:20:39.114Z,20.90
2022-12-17T00:23:44.403Z,20.40
2022-12-17T00:26:29.666Z,22.58
2022-12-17T00:29:14.954Z,20.85
2022-12-17T00:32:00.357Z,21.10
2022-12-17T00:34:46.015Z,23.63
2022-12-17T00:37:31.052Z,22.08
2022-12-17T00:40:16.580Z,18.67
2022-12-17T00:43:01.813Z,21.60
2022-12-17T00:45:46.999Z,23.58
2022-12-17T00:48:32.637Z,19.70
2022-12-17T00:51:18.061Z,21.23
2022-12-17T00:54:03.202Z,21.50
2022-12-17T00:56:48.872Z,21.17
2022-12-17T00:59:34.055Z,26.75
2022-12-17T01:02:19.641Z,26.33
2022-12-17T01:05:05.384Z,25.08
2022-12-17T01:07:50.793Z,27.00
2022-12-17T01:10:39.197Z,25.63
2022-12-17T01:13:24.253Z,25.77
2022-12-17T01:16:17.312Z,25.55
2022-12-17T01:19:02.945Z,27.10
2022-12-17T01:21:48.140Z,25.55
2022-12-17T01:24:33.420Z,26.33
2022-12-17T01:27:18.684Z,26.17
2022-12-17T01:30:03.835Z,24.38
2022-12-17T01:32:49.633Z,25.55
2022-12-17T01:35:34.843Z,25.25
2022-12-17T01:38:20.236Z,24.35
2022-12-17T01:41:10.698Z,24.40
2022-12-17T01:43:57.331Z,23.63
2022-12-17T01:46:45.371Z,25.23
2022-12-17T01:49:31.651Z,25.15
2022-12-17T01:52:19.766Z,24.88
2022-12-17T01:55:06.383Z,28.30
2022-12-17T01:57:52.318Z,26.77
2022-12-17T02:00:38.215Z,23.20
2022-12-17T02:03:24.208Z,22.58
2022-12-17T02:06:23.683Z,25.75
2022-12-17T02:09:29.979Z,24.85
2022-12-17T02:12:40.048Z,26.88
2022-12-17T02:15:52.053Z,22.27
2022-12-17T02:18:43.373Z,22.58
2022-12-17T02:21:30.994Z,22.85
2022-12-17T02:24:26.951Z,21.20
2022-12-17T02:30:59.641Z,22.73
2022-12-17T02:33:45.313Z,26.88
2022-12-17T02:36:30.618Z,22.42
2022-12-17T02:39:15.884Z,22.73
2022-12-17T02:42:10.364Z,24.10
2022-12-17T02:44:56.810Z,24.48
2022-12-17T02:47:43.693Z,24.88
2022-12-17T02:50:30.351Z,23.45
2022-12-17T02:53:18.730Z,20.67
2022-12-17T02:56:04.404Z,20.33
2022-12-17T02:58:49.587Z,17.08
2022-12-17T03:01:36.473Z,20.70
2022-12-17T03:04:22.042Z,21.27
2022-12-17T03:07:07.339Z,22.00
2022-12-17T03:09:52.584Z,22.20
2022-12-17T03:12:37.771Z,23.90
2022-12-17T03:15:24.012Z,23.52
2022-12-17T03:18:09.191Z,22.95
2022-12-17T03:20:54.640Z,23.27
2022-12-17T03:23:39.980Z,30.27
2022-12-17T03:26:25.233Z,28.20
2022-12-17T03:29:10.386Z,24.13
2022-12-17T03:31:55.880Z,32.10
2022-12-17T03:34:41.301Z,28.50
2022-12-17T03:37:26.773Z,27.48
2022-12-17T03:40:12.029Z,28.65
2022-12-17T03:42:57.301Z,31.83
2022-12-17T03:45:43.291Z,29.05
2022-12-17T03:48:31.763Z,26.40
2022-12-17T03:51:20.152Z,30.33
2022-12-17T03:54:06.334Z,28.52
2022-12-17T03:56:52.820Z,27.85
2022-12-17T03:59:38.325Z,27.25
2022-12-17T04:02:24.032Z,26.33
2022-12-17T04:05:10.942Z,27.75
2022-12-17T04:07:57.992Z,29.83
2022-12-17T04:10:43.548Z,21.52
2022-12-17T04:13:41.265Z,23.95
2022-12-17T04:16:27.655Z,20.73
2022-12-17T04:19:13.007Z,25.52
2022-12-17T04:21:58.466Z,30.63
2022-12-17T04:24:44.220Z,27.88
2022-12-17T04:27:29.433Z,22.67
2022-12-17T04:30:14.909Z,20.60
2022-12-17T04:33:00.410Z,20.45
2022-12-17T04:35:45.863Z,23.00
2022-12-17T04:38:31.233Z,25.20
2022-12-17T04:41:16.719Z,26.48
2022-12-17T04:44:03.513Z,24.27
2022-12-17T04:46:49.078Z,18.02
2022-12-17T04:49:34.387Z,20.67
2022-12-17T04:52:20.079Z,17.73
2022-12-17T04:55:05.806Z,18.95
2022-12-17T04:57:51.331Z,21.50
2022-12-17T05:00:36.715Z,20.98
2022-12-17T05:03:29.464Z,39.72
2022-12-17T05:06:15.341Z,32.35
2022-12-17T05:09:00.946Z,30.38
2022-12-17T05:11:46.453Z,33.42
2022-12-17T05:14:31.909Z,29.40
2022-12-17T05:17:17.411Z,32.50
2022-12-17T05:20:03.158Z,29.15
2022-12-17T05:22:48.411Z,41.28
2022-12-17T05:25:34.715Z,33.40
2022-12-17T05:28:20.258Z,76.50
2022-12-17T05:31:13.082Z,118.78
2022-12-17T05:33:58.796Z,42.72
2022-12-17T05:36:52.140Z,45.67
2022-12-17T05:39:37.547Z,63.13
2022-12-17T05:42:23.237Z,30.30
2022-12-17T05:45:08.805Z,31.88
2022-12-17T05:47:54.110Z,28.02
2022-12-17T05:50:39.634Z,32.78
2022-12-17T05:53:25.893Z,27.80
2022-12-17T05:56:11.699Z,99.78
2022-12-17T05:58:57.928Z,27.15
2022-12-17T06:01:43.323Z,28.30
2022-12-17T06:04:29.801Z,21.30
2022-12-17T06:07:15.283Z,22.05
2022-12-17T06:10:00.656Z,23.02
2022-12-17T06:12:45.821Z,26.02
2022-12-17T06:15:30.942Z,27.13
2022-12-17T06:18:17.344Z,28.35
2022-12-17T06:21:03.206Z,24.15
2022-12-17T06:23:49.477Z,26.70
2022-12-17T06:26:34.944Z,25.58
2022-12-17T06:29:20.546Z,22.02
2022-12-17T06:32:05.785Z,24.60
2022-12-17T06:34:51.216Z,22.65
2022-12-17T06:37:36.753Z,51.38
2022-12-17T06:40:22.792Z,35.47
2022-12-17T06:43:15.043Z,27.35
2022-12-17T06:46:00.358Z,26.85
2022-12-17T06:48:45.756Z,28.80
2022-12-17T06:51:31.054Z,27.88
2022-12-17T06:54:16.763Z,27.38
2022-12-17T06:57:02.382Z,32.10
2022-12-17T06:59:48.479Z,28.35
2022-12-17T07:02:34.236Z,27.30
2022-12-17T07:05:19.857Z,30.35
2022-12-17T07:08:12.930Z,24.88
2022-12-17T07:10:58.368Z,25.33
2022-12-17T07:13:43.585Z,26.27
2022-12-17T07:16:29.398Z,32.80
2022-12-17T07:19:14.471Z,25.38
2022-12-17T07:22:00.033Z,29.77
2022-12-17T07:24:45.411Z,31.40
2022-12-17T07:27:30.691Z,37.53
2022-12-17T07:30:35.851Z,28.85
2022-12-17T07:33:24.235Z,32.15
2022-12-17T07:36:11.447Z,28.13
2022-12-17T07:38:56.936Z,24.30
2022-12-17T07:41:42.399Z,23.00
2022-12-17T07:44:27.752Z,21.33
2022-12-17T07:47:13.338Z,19.55
2022-12-17T07:49:58.775Z,17.98
2022-12-17T07:52:43.914Z,18.48
2022-12-17T07:55:29.373Z,19.42
2022-12-17T07:58:23.837Z,18.83
2022-12-17T08:03:55.042Z,24.77
2022-12-17T08:06:40.176Z,23.42
2022-12-17T08:09:25.670Z,29.00
2022-12-17T08:12:11.210Z,21.63
2022-12-17T08:14:56.623Z,19.17
2022-12-17T08:17:42.228Z,21.33
2022-12-17T08:20:28.791Z,23.38
2022-12-17T08:23:23.988Z,21.15
2022-12-17T08:26:09.609Z,21.35
2022-12-17T08:28:55.015Z,25.80
2022-12-17T08:31:42.584Z,22.73
2022-12-17T08:34:28.049Z,26.88
2022-12-17T08:37:13.563Z,26.67
2022-12-17T08:39:59.036Z,27.73
2022-12-17T08:42:44.603Z,33.25
2022-12-17T08:45:30.209Z,27.40
2022-12-17T08:48:26.351Z,38.70
2022-12-17T08:51:11.891Z,39.53
2022-12-17T08:53:57.364Z,38.47
2022-12-17T08:56:42.983Z,41.60
2022-12-17T08:59:28.486Z,39.33
2022-12-17T09:02:14.242Z,42.67
2022-12-17T09:04:59.502Z,43.55
2022-12-17T09:07:45.013Z,37.35
2022-12-17T09:10:30.537Z,33.65
2022-12-17T09:13:21.005Z,36.20
2022-12-17T09:16:11.352Z,36.08
2022-12-17T09:18:56.991Z,35.72
2022-12-17T09:21:42.478Z,34.17
2022-12-17T09:24:42.313Z,32.40
2022-12-17T09:27:28.042Z,32.88
2022-12-17T09:30:13.180Z,30.80
2022-12-17T09:32:58.672Z,33.35
2022-12-17T09:35:44.214Z,38.03
2022-12-17T09:38:33.225Z,28.67
2022-12-17T09:41:26.479Z,30.75
2022-12-17T09:44:31.978Z,33.40
2022-12-17T09:47:32.504Z,27.20
2022-12-17T09:50:21.310Z,27.48
2022-12-17T09:53:07.315Z,29.25
2022-12-17T09:56:02.211Z,33.50
2022-12-17T09:58:48.721Z,30.38
2022-12-17T10:01:40.287Z,31.92
2022-12-17T10:04:39.100Z,32.15
2022-12-17T10:07:32.020Z,34.40
2022-12-17T10:10:20.509Z,31.23
2022-12-17T10:13:06.054Z,31.40
2022-12-17T10:15:51.669Z,26.75
2022-12-17T10:18:37.329Z,29.02
2022-12-17T10:21:26.696Z,32.75
2022-12-17T10:24:26.863Z,31.27
2022-12-17T10:27:12.315Z,30.65
2022-12-17T10:29:59.830Z,36.20
2022-12-17T10:32:45.948Z,31.13
2022-12-17T10:35:41.501Z,34.42
2022-12-17T10:38:45.023Z,204.35
2022-12-17T10:41:42.602Z,40.88
2022-12-17T10:44:46.706Z,37.60
2022-12-17T10:47:34.658Z,34.20
2022-12-17T10:50:22.735Z,29.52
2022-12-17T10:53:08.395Z,32.03
2022-12-17T10:55:54.411Z,32.13
2022-12-17T10:58:42.238Z,27.90
2022-12-17T11:01:37.978Z,30.75
2022-12-17T11:04:45.066Z,30.55
2022-12-17T11:07:38.363Z,31.38
2022-12-17T11:10:28.115Z,34.80
2022-12-17T11:13:21.615Z,29.27
2022-12-17T11:16:12.889Z,30.70
2022-12-17T11:18:58.155Z,31.10
2022-12-17T11:21:47.598Z,30.90
2022-12-17T11:24:46.306Z,33.35
2022-12-17T11:27:40.268Z,33.17
2022-12-17T11:30:33.792Z,30.70
2022-12-17T11:33:46.418Z,34.05
2022-12-17T11:36:42.155Z,37.58
2022-12-17T11:39:31.105Z,31.63
2022-12-17T11:42:42.718Z,35.35
2022-12-17T11:45:51.211Z,38.83
2022-12-17T11:48:57.770Z,30.45
2022-12-17T11:52:06.299Z,35.10
2022-12-17T11:55:21.248Z,35.00
2022-12-17T11:58:06.595Z,31.40
2022-12-17T12:01:00.052Z,33.70
2022-12-17T12:03:48.719Z,33.22
2022-12-17T12:06:48.885Z,34.38
2022-12-17T12:09:37.296Z,34.30
2022-12-17T12:12:25.983Z,35.33
2022-12-17T12:15:32.768Z,35.58
2022-12-17T12:18:47.778Z,35.63
2022-12-17T12:21:55.681Z,35.88
2022-12-17T12:25:15.450Z,32.50
2022-12-17T12:28:09.105Z,39.20
2022-12-17T12:31:28.385Z,40.42
2022-12-17T12:34:19.028Z,37.38
2022-12-17T12:37:06.468Z,34.78
2022-12-17T12:40:24.750Z,36.35
2022-12-17T12:43:16.851Z,35.42
2022-12-17T12:46:14.467Z,34.33
2022-12-17T12:49:37.578Z,35.17
2022-12-17T12:52:23.126Z,36.08
2022-12-17T12:55:11.946Z,32.10
2022-12-17T12:58:02.103Z,40.83
2022-12-17T13:00:56.087Z,30.77
2022-12-17T13:04:01.889Z,32.33
2022-12-17T13:06:42.565Z,28.00
2022-12-17T13:09:18.193Z,31.77
2022-12-17T13:12:09.833Z,30.15
2022-12-17T13:14:59.117Z,34.90
2022-12-17T13:17:31.633Z,37.60
2022-12-17T13:20:00.673Z,33.33
2022-12-17T13:22:28.910Z,31.35
2022-12-17T13:25:20.962Z,29.75
2022-12-17T13:27:49.206Z,28.30
2022-12-17T13:30:19.111Z,32.20
2022-12-17T13:33:16.806Z,31.80
2022-12-17T13:36:08.951Z,33.15
2022-12-17T13:39:05.997Z,33.63
2022-12-17T13:41:35.354Z,28.60
2022-12-17T13:44:15.962Z,30.65
2022-12-17T13:46:47.611Z,28.45
2022-12-17T13:49:26.752Z,32.85
2022-12-17T13:52:20.793Z,30.58
2022-12-17T13:54:50.425Z,29.05
2022-12-17T13:57:23.056Z,30.63
2022-12-17T13:59:54.489Z,26.77
2022-12-17T14:02:31.988Z,28.65
2022-12-17T14:05:08.121Z,30.52
2022-12-17T14:07:38.955Z,29.30
2022-12-17T14:10:14.816Z,28.90
2022-12-17T14:12:41.881Z,30.77
2022-12-17T14:15:24.380Z,32.58
2022-12-17T14:17:52.963Z,29.85
2022-12-17T14:20:23.729Z,30.77
2022-12-17T14:22:54.673Z,33.47
2022-12-17T14:25:24.304Z,32.63
2022-12-17T14:27:57.045Z,37.22
2022-12-17T14:31:17.346Z,35.92
2022-12-17T14:33:35.649Z,36.53
2022-12-17T14:36:09.339Z,35.35
2022-12-17T14:38:38.977Z,42.13
2022-12-17T14:41:33.666Z,40.10
2022-12-17T14:44:02.221Z,39.53
2022-12-17T14:46:30.918Z,38.58
2022-12-17T14:49:04.201Z,46.40
2022-12-17T14:51:38.152Z,41.40
2022-12-17T14:54:06.800Z,43.85
2022-12-17T14:56:33.710Z,45.40
2022-12-17T14:59:00.638Z,45.58
2022-12-17T15:01:27.462Z,48.75
2022-12-17T15:03:59.418Z,47.83
2022-12-17T15:06:27.045Z,47.78
2022-12-17T15:08:53.977Z,48.25
2022-12-17T15:11:22.307Z,47.58
2022-12-17T15:13:53.065Z,49.42
2022-12-17T15:16:22.863Z,34.80
2022-12-17T15:18:49.708Z,49.13
2022-12-17T15:21:18.381Z,51.03
2022-12-17T15:23:46.744Z,49.92
2022-12-17T15:26:17.438Z,52.55
2022-12-17T15:28:44.558Z,54.70
2022-12-17T15:31:12.737Z,52.03
2022-12-17T15:33:40.068Z,55.13
2022-12-17T15:36:07.520Z,48.28
2022-12-17T15:38:34.688Z,51.17
2022-12-17T15:41:22.849Z,50.60
2022-12-17T15:43:49.826Z,49.63
2022-12-17T15:46:16.551Z,49.53
2022-12-17T15:48:49.825Z,49.50
2022-12-17T15:51:19.784Z,51.72
2022-12-17T15:53:48.070Z,51.42
2022-12-17T15:56:24.717Z,51.75
2022-12-17T15:58:52.023Z,53.00
2022-12-17T16:01:20.126Z,49.85
2022-12-17T16:03:47.153Z,52.90
2022-12-17T16:06:14.071Z,53.22
2022-12-17T16:08:41.288Z,52.88
2022-12-17T16:11:13.855Z,50.80
2022-12-17T16:13:40.711Z,49.33
2022-12-17T16:16:08.751Z,54.28
2022-12-17T16:18:38.559Z,52.20
2022-12-17T16:21:07.658Z,54.53
2022-12-17T16:23:35.374Z,54.17
2022-12-17T16:26:04.746Z,52.85
2022-12-17T16:28:31.462Z,54.17
2022-12-17T16:31:07.843Z,54.00
2022-12-17T16:33:36.542Z,52.90
2022-12-17T16:36:04.836Z,56.08
2022-12-17T16:38:32.036Z,64.30
2022-12-17T16:41:01.308Z,56.55
2022-12-17T16:43:28.917Z,47.90
2022-12-17T16:45:55.718Z,47.13
2022-12-17T16:48:22.641Z,55.50
2022-12-17T16:50:50.648Z,50.38
2022-12-17T16:53:18.257Z,52.00
2022-12-17T16:55:46.991Z,57.80
2022-12-17T16:58:18.158Z,57.22
2022-12-17T17:00:46.335Z,54.20
2022-12-17T17:03:13.264Z,62.72
2022-12-17T17:05:40.280Z,54.35
2022-12-17T17:08:07.401Z,57.00
2022-12-17T17:10:36.975Z,58.40
2022-12-17T17:13:04.499Z,55.75
2022-12-17T17:15:31.288Z,60.08
2022-12-17T17:18:01.968Z,57.92
2022-12-17T17:20:32.393Z,60.45
2022-12-17T17:22:59.869Z,55.83
2022-12-17T17:25:43.844Z,62.30
2022-12-17T17:28:10.989Z,66.75
2022-12-17T17:30:37.679Z,77.15
2022-12-17T17:33:04.422Z,70.97
2022-12-17T17:35:31.596Z,67.78
2022-12-17T17:37:58.259Z,60.33
2022-12-17T17:40:24.951Z,75.50
2022-12-17T17:42:51.861Z,68.60
2022-12-17T17:45:20.261Z,68.18
2022-12-17T17:47:46.947Z,67.53
2022-12-17T17:50:13.702Z,66.47
2022-12-17T17:52:40.422Z,69.47
2022-12-17T17:55:07.747Z,59.95
2022-12-17T17:57:34.649Z,68.93
2022-12-17T18:00:01.477Z,70.40
2022-12-17T18:02:28.414Z,63.58
2022-12-17T18:04:55.409Z,75.05
2022-12-17T18:07:26.357Z,71.78
2022-12-17T18:09:54.018Z,66.13
2022-12-17T18:12:39.756Z,70.05
2022-12-17T18:15:16.192Z,72.22
2022-12-17T18:17:46.512Z,65.07
2022-12-17T18:20:14.176Z,66.72
2022-12-17T18:22:40.978Z,63.00
2022-12-17T18:25:08.012Z,62.85
2022-12-17T18:27:34.748Z,65.93
2022-12-17T18:30:01.438Z,63.90
2022-12-17T18:32:28.343Z,61.25
2022-12-17T18:34:55.168Z,57.25
2022-12-17T18:37:21.914Z,58.63
2022-12-17T18:39:49.180Z,57.40
2022-12-17T18:42:34.518Z,63.65
2022-12-17T18:45:01.827Z,57.25
2022-12-17T18:47:28.906Z,59.10
2022-12-17T18:49:55.607Z,56.88
2022-12-17T18:52:24.259Z,50.78
2022-12-17T18:54:50.996Z,52.38
2022-12-17T18:57:17.793Z,55.00
2022-12-17T18:59:45.047Z,54.88
2022-12-17T19:02:13.267Z,53.25
2022-12-17T19:04:40.563Z,55.03
2022-12-17T19:07:07.359Z,53.80
2022-12-17T19:09:35.724Z,58.53
2022-12-17T19:12:04.627Z,54.60
2022-12-17T19:14:31.558Z,58.58
2022-12-17T19:16:58.301Z,58.13
2022-12-17T19:19:25.502Z,59.70
2022-12-17T19:21:55.116Z,53.63
2022-12-17T19:24:22.936Z,56.22
2022-12-17T19:26:50.091Z,55.35
2022-12-17T19:29:18.353Z,48.67
2022-12-17T19:31:46.690Z,50.92
2022-12-17T19:34:15.459Z,49.83
2022-12-17T19:36:42.935Z,46.95
2022-12-17T19:39:14.662Z,47.50
2022-12-17T19:41:41.469Z,50.30
2022-12-17T19:44:13.035Z,48.10
2022-12-17T19:46:40.084Z,45.88
2022-12-17T19:49:08.444Z,46.60
2022-12-17T19:51:35.266Z,50.72
2022-12-17T19:54:08.174Z,53.88
2022-12-17T19:56:36.518Z,51.47
2022-12-17T19:59:09.414Z,54.92
2022-12-17T20:01:39.800Z,51.20
2022-12-17T20:04:06.590Z,57.47
2022-12-17T20:06:35.192Z,52.05
2022-12-17T20:09:04.975Z,54.25
2022-12-17T20:11:34.672Z,47.70
2022-12-17T20:14:14.908Z,47.33
2022-12-17T20:16:47.506Z,49.25
2022-12-17T20:19:17.359Z,49.88
2022-12-17T20:21:44.276Z,50.55
2022-12-17T20:24:12.150Z,49.63
2022-12-17T20:26:39.106Z,49.72
2022-12-17T20:29:06.291Z,48.72
2022-12-17T20:31:33.985Z,45.85
2022-12-17T20:34:02.026Z,47.45
2022-12-17T20:36:29.140Z,47.97
2022-12-17T20:38:56.423Z,48.97
2022-12-17T20:41:25.434Z,48.88
2022-12-17T20:43:53.305Z,45.70
2022-12-17T20:46:21.334Z,46.42
2022-12-17T20:48:48.283Z,46.42
2022-12-17T20:51:24.251Z,47.75
2022-12-17T20:53:52.767Z,42.47
2022-12-17T20:56:23.592Z,46.28
2022-12-17T20:58:55.600Z,45.75
2022-12-17T21:01:24.009Z,40.95
2022-12-17T21:03:52.722Z,41.40
2022-12-17T21:06:22.155Z,40.58
2022-12-17T21:08:51.121Z,39.03
2022-12-17T21:11:19.874Z,40.20
2022-12-17T21:13:46.912Z,39.75
2022-12-17T21:16:17.868Z,43.88
2022-12-17T21:18:44.663Z,40.55
2022-12-17T21:21:18.622Z,46.33
2022-12-17T21:23:46.985Z,42.17
2022-12-17T21:26:14.951Z,41.08
2022-12-17T21:28:45.113Z,39.53
2022-12-17T21:31:19.522Z,42.75
2022-12-17T21:33:49.751Z,38.30
2022-12-17T21:36:19.683Z,42.28
2022-12-17T21:38:47.099Z,42.33
2022-12-17T21:41:16.914Z,43.78
2022-12-17T21:43:43.644Z,39.28
2022-12-17T21:46:11.978Z,42.50
2022-12-17T21:48:42.213Z,42.05
2022-12-17T21:51:11.370Z,44.00
2022-12-17T21:53:43.507Z,40.80
2022-12-17T21:56:14.438Z,42.55
2022-12-17T21:58:43.770Z,41.03
2022-12-17T22:01:18.965Z,38.90
2022-12-17T22:03:53.624Z,41.10
2022-12-17T22:06:26.403Z,40.53
2022-12-17T22:09:01.505Z,39.97
2022-12-17T22:11:32.804Z,40.83
2022-12-17T22:14:07.263Z,40.92
2022-12-17T22:16:39.832Z,39.72
2022-12-17T22:19:11.658Z,37.00
2022-12-17T22:21:40.365Z,35.55
2022-12-17T22:24:08.194Z,40.53
2022-12-17T22:26:35.083Z,38.80
2022-12-17T22:29:03.425Z,40.38
2022-12-17T22:31:48.753Z,38.63
2022-12-17T22:35:49.449Z,41.03
2022-12-17T22:39:28.089Z,42.42
2022-12-17T22:43:54.996Z,39.13
2022-12-17T22:44:37.715Z,42.10
2022-12-17T22:45:42.297Z,48.45
2022-12-17T22:48:10.807Z,42.83
2022-12-17T22:50:50.030Z,47.03
2022-12-17T22:53:25.743Z,53.42
2022-12-17T22:55:53.102Z,48.45
2022-12-17T22:58:20.944Z,48.42
2022-12-17T23:00:47.691Z,45.25
2022-12-17T23:03:14.513Z,43.47
2022-12-17T23:05:41.364Z,53.97
2022-12-17T23:08:08.142Z,50.08
2022-12-17T23:10:35.095Z,46.33
2022-12-17T23:13:01.824Z,39.88
2022-12-17T23:15:30.817Z,37.70
2022-12-17T23:18:00.672Z,39.78
2022-12-17T23:20:29.789Z,36.83
2022-12-17T23:22:57.063Z,35.70
2022-12-17T23:25:24.497Z,44.85
2022-12-17T23:27:51.893Z,48.05
2022-12-17T23:30:19.458Z,49.83
2022-12-17T23:32:46.680Z,46.20
2022-12-17T23:35:14.093Z,43.50
2022-12-17T23:37:41.649Z,34.08
2022-12-17T23:40:10.441Z,32.58
2022-12-17T23:42:37.527Z,36.47
2022-12-17T23:45:06.109Z,37.35
2022-12-17T23:47:33.257Z,35.35
2022-12-17T23:49:59.981Z,33.88
2022-12-17T23:52:26.681Z,36.28
2022-12-17T23:54:53.641Z,39.53
2022-12-17T23:57:20.493Z,36.72
2022-12-17T23:59:47.211Z,36.25
